createdAt,value
2023-04-30T00:00:38.612Z,63.03
2023-04-30T00:03:05.333Z,64.11
2023-04-30T00:05:32.077Z,62.44
2023-04-30T00:07:58.700Z,60.59
2023-04-30T00:10:25.330Z,57.62
2023-04-30T00:12:52.002Z,57.51
2023-04-30T00:15:18.644Z,58.23
2023-04-30T00:17:45.863Z,58.79
2023-04-30T00:20:13.117Z,60.53
2023-04-30T00:22:39.849Z,60.44
2023-04-30T00:25:06.762Z,62.67
2023-04-30T00:27:33.336Z,64.43
2023-04-30T00:29:59.957Z,63.10
2023-04-30T00:32:26.543Z,61.17
2023-04-30T00:34:53.324Z,58.23
2023-04-30T00:37:19.846Z,57.49
2023-04-30T00:39:46.393Z,58.63
2023-04-30T00:42:12.958Z,59.99
2023-04-30T00:44:39.482Z,60.78
2023-04-30T00:47:06.260Z,63.36
2023-04-30T00:49:33.251Z,65.09
2023-04-30T00:51:59.837Z,63.94
2023-04-30T00:54:26.731Z,63.15
2023-04-30T00:56:54.335Z,62.20
2023-04-30T00:59:21.192Z,61.37
2023-04-30T01:01:48.394Z,58.95
2023-04-30T01:04:15.568Z,58.16
2023-04-30T01:06:43.401Z,58.66
2023-04-30T01:09:10.538Z,59.96
2023-04-30T01:12:07.462Z,63.33
2023-04-30T01:14:50.043Z,65.25
2023-04-30T01:17:28.368Z,63.18
2023-04-30T01:19:56.242Z,60.89
2023-04-30T01:22:25.974Z,58.06
2023-04-30T01:25:14.426Z,56.54
2023-04-30T01:28:30.381Z,57.41
2023-04-30T01:30:57.081Z,58.19
2023-04-30T01:33:23.846Z,59.84
2023-04-30T01:36:19.246Z,60.86
2023-04-30T01:39:06.692Z,65.68
2023-04-30T01:41:43.941Z,67.04
2023-04-30T01:44:26.061Z,63.71
2023-04-30T01:47:05.694Z,61.30
2023-04-30T01:49:44.494Z,58.58
2023-04-30T01:52:40.437Z,58.15
2023-04-30T01:55:24.278Z,60.43
2023-04-30T01:57:59.979Z,65.79
2023-04-30T02:00:28.624Z,66.23
2023-04-30T02:02:55.727Z,64.91
2023-04-30T02:05:22.488Z,62.85
2023-04-30T02:07:51.547Z,61.52
2023-04-30T02:10:21.610Z,60.84
2023-04-30T02:12:48.566Z,60.28
2023-04-30T02:18:06.782Z,57.70
2023-04-30T02:20:33.518Z,59.82
2023-04-30T02:23:00.595Z,62.84
2023-04-30T02:25:27.262Z,65.24
2023-04-30T02:27:53.809Z,64.26
2023-04-30T02:30:21.031Z,62.56
2023-04-30T02:32:48.259Z,61.30
2023-04-30T02:35:15.108Z,60.44
2023-04-30T02:37:41.750Z,58.76
2023-04-30T02:40:08.944Z,57.75
2023-04-30T02:42:35.498Z,59.04
2023-04-30T02:45:03.661Z,60.45
2023-04-30T02:47:31.443Z,64.06
2023-04-30T02:49:58.024Z,64.83
2023-04-30T02:52:25.852Z,64.46
2023-04-30T02:54:52.450Z,62.80
2023-04-30T02:57:18.988Z,61.36
2023-04-30T02:59:46.348Z,60.13
2023-04-30T03:02:13.858Z,57.61
2023-04-30T03:04:40.717Z,57.96
2023-04-30T03:07:07.267Z,58.84
2023-04-30T03:09:34.698Z,60.44
2023-04-30T03:12:02.640Z,63.96
2023-04-30T03:14:30.402Z,65.63
2023-04-30T03:16:56.993Z,64.73
2023-04-30T03:19:25.440Z,63.01
2023-04-30T03:21:52.557Z,61.61
2023-04-30T03:24:19.509Z,61.06
2023-04-30T03:26:46.830Z,60.33
2023-04-30T03:29:13.682Z,60.18
2023-04-30T03:31:40.361Z,58.51
2023-04-30T03:34:07.135Z,59.10
2023-04-30T03:36:34.850Z,60.65
2023-04-30T03:39:02.366Z,65.66
2023-04-30T03:41:28.932Z,66.85
2023-04-30T03:43:55.667Z,66.35
2023-04-30T03:46:22.552Z,64.99
2023-04-30T03:48:49.235Z,64.42
2023-04-30T03:51:15.800Z,63.53
2023-04-30T03:53:42.406Z,62.42
2023-04-30T03:56:08.991Z,61.98
2023-04-30T03:58:35.627Z,61.76
2023-04-30T04:01:02.217Z,61.68
2023-04-30T04:03:28.822Z,61.43
2023-04-30T04:05:55.495Z,60.89
2023-04-30T04:08:22.682Z,60.13
2023-04-30T04:10:49.217Z,60.34
2023-04-30T04:13:15.795Z,60.41
2023-04-30T04:15:42.441Z,60.36
2023-04-30T04:18:09.120Z,60.18
2023-04-30T04:20:35.751Z,60.36
2023-04-30T04:23:02.672Z,60.23
2023-04-30T04:25:29.255Z,60.60
2023-04-30T04:27:55.827Z,60.58
2023-04-30T04:30:22.449Z,59.61
2023-04-30T04:32:51.781Z,60.72
2023-04-30T04:35:19.245Z,62.04
2023-04-30T04:37:45.974Z,64.96
2023-04-30T04:40:13.827Z,64.73
2023-04-30T04:42:40.771Z,63.39
2023-04-30T04:45:08.380Z,62.38
2023-04-30T04:47:35.153Z,61.66
2023-04-30T04:50:02.221Z,61.12
2023-04-30T04:52:29.172Z,60.57
2023-04-30T04:54:55.984Z,59.78
2023-04-30T04:57:22.605Z,58.47
2023-04-30T04:59:49.308Z,58.56
2023-04-30T05:02:15.934Z,60.77
2023-04-30T05:04:42.517Z,63.08
2023-04-30T05:07:09.131Z,62.54
2023-04-30T05:09:35.730Z,60.81
2023-04-30T05:12:02.643Z,59.57
2023-04-30T05:14:29.237Z,57.45
2023-04-30T05:16:55.857Z,57.71
2023-04-30T05:19:22.446Z,58.84
2023-04-30T05:21:49.103Z,59.09
2023-04-30T05:24:15.793Z,61.04
2023-04-30T05:26:42.304Z,61.23
2023-04-30T05:29:08.831Z,63.04
2023-04-30T05:31:36.136Z,62.15
2023-04-30T05:34:02.650Z,60.26
2023-04-30T05:36:29.316Z,58.43
2023-04-30T05:38:55.870Z,57.86
2023-04-30T05:41:22.439Z,58.50
2023-04-30T05:43:48.973Z,59.33
2023-04-30T05:46:15.569Z,60.10
2023-04-30T05:48:42.180Z,60.71
2023-04-30T05:51:10.741Z,61.45
2023-04-30T05:53:37.390Z,61.26
2023-04-30T05:56:03.941Z,61.86
2023-04-30T05:58:30.570Z,63.44
2023-04-30T06:00:57.196Z,62.44
2023-04-30T06:03:23.756Z,57.40
2023-04-30T06:05:51.643Z,55.34
2023-04-30T06:08:18.557Z,56.46
2023-04-30T06:10:45.190Z,55.57
2023-04-30T06:13:11.756Z,55.66
2023-04-30T06:15:38.370Z,56.36
2023-04-30T06:18:05.105Z,55.60
2023-04-30T06:20:31.787Z,55.22
2023-04-30T06:22:58.511Z,54.90
2023-04-30T06:25:25.136Z,54.51
2023-04-30T06:27:54.122Z,53.83
2023-04-30T06:30:21.052Z,52.98
2023-04-30T06:32:47.648Z,52.95
2023-04-30T06:35:15.153Z,52.52
2023-04-30T06:37:41.899Z,49.97
2023-04-30T06:40:09.048Z,49.48
2023-04-30T06:42:36.052Z,49.57
2023-04-30T06:45:03.646Z,51.72
2023-04-30T06:47:34.757Z,52.51
2023-04-30T06:50:02.415Z,50.21
2023-04-30T06:52:29.094Z,49.98
2023-04-30T06:54:55.844Z,48.20
2023-04-30T06:57:22.776Z,45.13
2023-04-30T06:59:49.311Z,45.28
2023-04-30T07:02:16.247Z,42.96
2023-04-30T07:04:42.796Z,39.87
2023-04-30T07:07:09.663Z,37.03
2023-04-30T07:09:39.401Z,35.78
2023-04-30T07:12:06.202Z,33.62
2023-04-30T07:14:32.831Z,31.95
2023-04-30T07:17:02.276Z,29.38
2023-04-30T07:19:28.797Z,27.70
2023-04-30T07:21:55.461Z,25.30
2023-04-30T07:24:22.078Z,24.05
2023-04-30T07:26:48.668Z,23.65
2023-04-30T07:29:15.299Z,23.11
2023-04-30T07:31:47.682Z,22.97
2023-04-30T07:34:14.300Z,22.09
2023-04-30T07:36:41.133Z,21.53
2023-04-30T07:39:08.177Z,22.21
2023-04-30T07:41:34.773Z,21.95
2023-04-30T07:44:01.378Z,20.91
2023-04-30T07:46:28.245Z,20.51
2023-04-30T07:48:54.934Z,20.79
2023-04-30T07:51:21.792Z,20.61
2023-04-30T07:53:50.917Z,19.41
2023-04-30T07:56:17.519Z,18.82
2023-04-30T07:58:44.153Z,18.31
2023-04-30T08:01:10.947Z,17.94
2023-04-30T08:03:37.658Z,18.32
2023-04-30T08:06:05.803Z,17.50
2023-04-30T08:08:32.377Z,16.92
2023-04-30T08:10:58.905Z,16.83
2023-04-30T08:13:25.456Z,16.57
2023-04-30T08:15:52.046Z,16.07
2023-04-30T08:18:18.652Z,16.56
2023-04-30T08:20:45.371Z,17.28
2023-04-30T08:23:11.981Z,17.07
2023-04-30T08:25:38.501Z,16.96
2023-04-30T08:28:06.710Z,16.72
2023-04-30T08:30:33.341Z,17.05
2023-04-30T08:33:00.348Z,16.90
2023-04-30T08:35:26.954Z,16.68
2023-04-30T08:37:54.084Z,16.54
2023-04-30T08:40:21.951Z,16.15
2023-04-30T08:43:05.233Z,16.00
2023-04-30T08:45:33.552Z,15.77
2023-04-30T08:48:03.987Z,15.31
2023-04-30T08:50:31.266Z,15.30
2023-04-30T08:52:59.642Z,14.81
2023-04-30T08:55:29.977Z,15.02
2023-04-30T08:57:56.527Z,14.45
2023-04-30T09:00:23.261Z,14.43
2023-04-30T09:02:50.377Z,14.23
2023-04-30T09:05:17.047Z,14.23
2023-04-30T09:07:56.018Z,13.95
2023-04-30T09:10:33.817Z,13.46
2023-04-30T09:13:08.413Z,13.25
2023-04-30T09:15:37.590Z,13.50
2023-04-30T09:18:10.030Z,13.24
2023-04-30T09:20:37.307Z,13.46
2023-04-30T09:23:09.145Z,13.62
2023-04-30T09:25:43.066Z,12.93
2023-04-30T09:28:11.440Z,13.11
2023-04-30T09:30:39.166Z,12.58
2023-04-30T09:33:06.977Z,12.63
2023-04-30T09:35:42.656Z,12.86
